IBE61G EGCC-LEAS
Flight info
| Callsign | IBE61G |
|---|---|
| Flight time | N/A |
| Altitude | 31000 |
| Route | SANBA N859 HON UN859 KIDLI/N0429F330 UN859 CPT/N0379F230 Y321 PEPIS/N0430F320 Q41 SAM N63 LELNA/N0434F330 DCT BALDA/N0376F230 N480 MAVOS |
| Aircraft | A320/M-SDE3FGHIRWY/LB1 |
Departure
| Time | N/A |
|---|---|
| Airport | Manchester Airport (EGCC) |
Arrival
| Time | 2026-04-26 15:09 |
|---|---|
| Airport | Asturias Airport (LEAS) |
| Time | Latitude | Longitude | Altitude | Speed | Heading |
|---|---|---|---|---|---|
| 2026-04-26 14:48 | 44.89785 | -5.38648 | 30992 ft | 446 kts | 202° |
| 2026-04-26 14:48 | 44.86916 | -5.40314 | 30992 ft | 446 kts | 202° |
| 2026-04-26 14:49 | 44.81168 | -5.43645 | 30962 ft | 447 kts | 202° |
| 2026-04-26 14:49 | 44.78295 | -5.45311 | 30151 ft | 445 kts | 202° |
| 2026-04-26 14:49 | 44.75477 | -5.46943 | 29494 ft | 430 kts | 202° |
| 2026-04-26 14:49 | 44.72757 | -5.48516 | 28849 ft | 419 kts | 202° |
| 2026-04-26 14:50 | 44.70068 | -5.50068 | 28219 ft | 416 kts | 202° |
| 2026-04-26 14:50 | 44.67385 | -5.51615 | 27590 ft | 417 kts | 202° |
| 2026-04-26 14:50 | 44.64707 | -5.53158 | 26965 ft | 415 kts | 202° |
| 2026-04-26 14:50 | 44.62040 | -5.54694 | 26338 ft | 413 kts | 202° |
| 2026-04-26 14:51 | 44.59402 | -5.56270 | 25724 ft | 411 kts | 204° |
| 2026-04-26 14:51 | 44.56825 | -5.57971 | 25112 ft | 408 kts | 206° |
| 2026-04-26 14:51 | 44.54295 | -5.59747 | 24511 ft | 405 kts | 207° |
| 2026-04-26 14:51 | 44.51792 | -5.61548 | 23916 ft | 402 kts | 207° |
| 2026-04-26 14:52 | 44.49311 | -5.63332 | 23341 ft | 399 kts | 207° |
| 2026-04-26 14:52 | 44.46877 | -5.65058 | 22790 ft | 396 kts | 207° |
| 2026-04-26 14:52 | 44.44392 | -5.66797 | 22259 ft | 393 kts | 206° |
| 2026-04-26 14:52 | 44.41949 | -5.68487 | 21743 ft | 389 kts | 206° |
| 2026-04-26 14:53 | 44.39534 | -5.70145 | 21258 ft | 385 kts | 206° |
| 2026-04-26 14:53 | 44.37136 | -5.71783 | 20777 ft | 381 kts | 206° |
| 2026-04-26 14:53 | 44.34796 | -5.73384 | 20309 ft | 378 kts | 206° |
| 2026-04-26 14:53 | 44.32448 | -5.74997 | 19841 ft | 374 kts | 206° |
| 2026-04-26 14:54 | 44.30123 | -5.76594 | 19368 ft | 371 kts | 206° |
| 2026-04-26 14:54 | 44.27818 | -5.78174 | 18903 ft | 368 kts | 206° |
| 2026-04-26 14:54 | 44.25526 | -5.79746 | 18428 ft | 366 kts | 206° |
| 2026-04-26 14:54 | 44.23247 | -5.81308 | 17944 ft | 363 kts | 206° |
| 2026-04-26 14:55 | 44.20982 | -5.82858 | 17458 ft | 362 kts | 206° |
| 2026-04-26 14:55 | 44.18726 | -5.84398 | 16959 ft | 360 kts | 206° |
| 2026-04-26 14:55 | 44.16480 | -5.85931 | 16473 ft | 359 kts | 206° |
| 2026-04-26 14:55 | 44.14240 | -5.87461 | 15974 ft | 358 kts | 206° |
| 2026-04-26 14:56 | 44.12007 | -5.88984 | 15475 ft | 357 kts | 206° |
| 2026-04-26 14:56 | 44.09783 | -5.90497 | 14973 ft | 355 kts | 206° |
| 2026-04-26 14:56 | 44.07567 | -5.92007 | 14470 ft | 354 kts | 206° |
| 2026-04-26 14:56 | 44.05428 | -5.93688 | 13961 ft | 352 kts | 215° |
| 2026-04-26 14:57 | 44.03549 | -5.95854 | 13454 ft | 350 kts | 223° |
| 2026-04-26 14:57 | 44.01761 | -5.98136 | 12950 ft | 348 kts | 223° |
| 2026-04-26 14:57 | 43.99976 | -6.00403 | 12435 ft | 346 kts | 223° |
| 2026-04-26 14:57 | 43.98199 | -6.02647 | 11914 ft | 345 kts | 222° |
| 2026-04-26 14:58 | 43.96425 | -6.04881 | 11388 ft | 344 kts | 222° |
| 2026-04-26 14:58 | 43.94652 | -6.07110 | 10860 ft | 342 kts | 222° |
| 2026-04-26 14:58 | 43.92897 | -6.09319 | 10334 ft | 340 kts | 223° |
| 2026-04-26 14:58 | 43.91153 | -6.11519 | 9807 ft | 338 kts | 223° |
| 2026-04-26 14:59 | 43.89420 | -6.13701 | 9281 ft | 335 kts | 222° |
| 2026-04-26 14:59 | 43.87699 | -6.15866 | 8759 ft | 333 kts | 222° |
| 2026-04-26 14:59 | 43.85989 | -6.18020 | 8228 ft | 331 kts | 223° |
| 2026-04-26 14:59 | 43.84864 | -6.19436 | 7879 ft | 329 kts | 222° |
| 2026-04-26 15:00 | 43.82604 | -6.22269 | 7175 ft | 326 kts | 222° |
| 2026-04-26 15:00 | 43.80940 | -6.24351 | 6915 ft | 316 kts | 222° |
| 2026-04-26 15:00 | 43.79350 | -6.26341 | 6777 ft | 301 kts | 222° |
| 2026-04-26 15:00 | 43.77829 | -6.28244 | 6663 ft | 288 kts | 222° |
| 2026-04-26 15:01 | 43.76284 | -6.29908 | 6531 ft | 276 kts | 211° |
| 2026-04-26 15:01 | 43.74567 | -6.30952 | 6403 ft | 264 kts | 198° |
| 2026-04-26 15:01 | 43.72854 | -6.31701 | 6276 ft | 252 kts | 198° |
| 2026-04-26 15:01 | 43.71216 | -6.32421 | 6149 ft | 241 kts | 198° |
| 2026-04-26 15:02 | 43.69651 | -6.33127 | 5998 ft | 232 kts | 202° |
| 2026-04-26 15:02 | 43.68376 | -6.34390 | 5835 ft | 226 kts | 234° |
| 2026-04-26 15:02 | 43.67632 | -6.36295 | 5541 ft | 226 kts | 247° |
| 2026-04-26 15:02 | 43.67026 | -6.38323 | 5107 ft | 230 kts | 248° |
| 2026-04-26 15:03 | 43.66145 | -6.40160 | 4679 ft | 233 kts | 220° |
| 2026-04-26 15:03 | 43.64677 | -6.41091 | 4253 ft | 238 kts | 187° |
| 2026-04-26 15:03 | 43.63036 | -6.40806 | 3793 ft | 244 kts | 156° |
| 2026-04-26 15:03 | 43.61738 | -6.39347 | 3504 ft | 239 kts | 123° |
| 2026-04-26 15:04 | 43.61261 | -6.37299 | 3478 ft | 216 kts | 88° |
| 2026-04-26 15:04 | 43.61589 | -6.35382 | 3488 ft | 202 kts | 68° |
| 2026-04-26 15:04 | 43.62114 | -6.33627 | 3522 ft | 195 kts | 70° |
| 2026-04-26 15:04 | 43.62428 | -6.31818 | 3509 ft | 194 kts | 83° |
| 2026-04-26 15:05 | 43.62445 | -6.29972 | 3506 ft | 193 kts | 96° |
| 2026-04-26 15:05 | 43.62292 | -6.28738 | 3499 ft | 193 kts | 104° |
| 2026-04-26 15:05 | 43.61762 | -6.26397 | 3452 ft | 193 kts | 108° |
| 2026-04-26 15:05 | 43.61349 | -6.24639 | 3249 ft | 192 kts | 108° |
| 2026-04-26 15:06 | 43.60944 | -6.22890 | 2999 ft | 191 kts | 108° |
| 2026-04-26 15:06 | 43.60532 | -6.21145 | 2740 ft | 190 kts | 108° |
| 2026-04-26 15:06 | 43.60119 | -6.19410 | 2477 ft | 190 kts | 108° |
| 2026-04-26 15:06 | 43.59714 | -6.17677 | 2210 ft | 189 kts | 108° |
| 2026-04-26 15:07 | 43.58899 | -6.14247 | 1690 ft | 188 kts | 108° |
| 2026-04-26 15:07 | 43.58497 | -6.12538 | 1429 ft | 187 kts | 108° |
| 2026-04-26 15:07 | 43.58100 | -6.10845 | 1182 ft | 181 kts | 108° |
| 2026-04-26 15:08 | 43.57728 | -6.09265 | 946 ft | 163 kts | 108° |
| 2026-04-26 15:08 | 43.57392 | -6.07844 | 710 ft | 149 kts | 108° |
| 2026-04-26 15:08 | 43.57080 | -6.06524 | 591 ft | 139 kts | 108° |
| 2026-04-26 15:08 | 43.56777 | -6.05233 | 531 ft | 141 kts | 109° |
| 2026-04-26 15:09 | 43.56470 | -6.03965 | 423 ft | 133 kts | 107° |
| 2026-04-26 15:09 | 43.56253 | -6.03047 | 423 ft | 60 kts | 108° |
| 2026-04-26 15:09 | 43.56189 | -6.02775 | 417 ft | 24 kts | 108° |
| 2026-04-26 15:09 | 43.56133 | -6.02532 | 419 ft | 28 kts | 108° |
| 2026-04-26 15:10 | 43.56074 | -6.02277 | 415 ft | 24 kts | 107° |
| 2026-04-26 15:10 | 43.56032 | -6.02212 | 414 ft | 13 kts | 171° |
| 2026-04-26 15:10 | 43.55953 | -6.02343 | 419 ft | 16 kts | 245° |
| 2026-04-26 15:10 | 43.55963 | -6.02500 | 421 ft | 18 kts | 287° |
| 2026-04-26 15:11 | 43.56004 | -6.02673 | 417 ft | 20 kts | 288° |
| 2026-04-26 15:11 | 43.56050 | -6.02865 | 421 ft | 22 kts | 288° |
| 2026-04-26 15:11 | 43.56089 | -6.03029 | 416 ft | 17 kts | 288° |
| 2026-04-26 15:11 | 43.56118 | -6.03195 | 418 ft | 16 kts | 251° |
| 2026-04-26 15:12 | 43.56062 | -6.03242 | 413 ft | 6 kts | 239° |
| 2026-04-26 15:12 | 43.56084 | -6.03311 | 419 ft | 9 kts | 270° |
| 2026-04-26 15:12 | 43.56045 | -6.03337 | 421 ft | 6 kts | 197° |
| 2026-04-26 15:12 | 43.56030 | -6.03342 | 415 ft | 2 kts | 195° |
| 2026-04-26 15:13 | 43.56027 | -6.03358 | 417 ft | 4 kts | 268° |
| 2026-04-26 15:13 | 43.56051 | -6.03367 | 415 ft | 3 kts | 35° |
| 2026-04-26 15:13 | 43.56062 | -6.03357 | 412 ft | 0 kts | 28° |
| 2026-04-26 15:13 | 43.56064 | -6.03355 | 412 ft | 0 kts | 27° |